sensor_id;sensor_type;location;lat;lon;timestamp;pressure;altitude;pressure_sealevel;temperature;humidity
45793;BME280;31495;42.740;22.908;2023-01-04T00:00:22;94086.56;;;2.21;75.19
45793;BME280;31495;42.740;22.908;2023-01-04T00:01:22;94087.25;;;2.23;74.70
45793;BME280;31495;42.740;22.908;2023-01-04T00:02:21;94084.41;;;2.26;74.99
45793;BME280;31495;42.740;22.908;2023-01-04T00:03:21;94090.06;;;2.30;75.11
45793;BME280;31495;42.740;22.908;2023-01-04T00:04:20;94049.50;;;2.07;74.68
45793;BME280;31495;42.740;22.908;2023-01-04T00:05:20;94080.50;;;2.32;74.42
45793;BME280;31495;42.740;22.908;2023-01-04T00:06:19;94047.72;;;2.17;74.18
45793;BME280;31495;42.740;22.908;2023-01-04T00:07:19;94071.91;;;2.33;74.01
45793;BME280;31495;42.740;22.908;2023-01-04T00:08:19;94061.69;;;2.33;74.34
45793;BME280;31495;42.740;22.908;2023-01-04T00:09:18;94082.25;;;2.41;74.57
45793;BME280;31495;42.740;22.908;2023-01-04T00:10:18;94056.72;;;2.31;74.82
45793;BME280;31495;42.740;22.908;2023-01-04T00:11:19;94073.78;;;2.41;74.90
45793;BME280;31495;42.740;22.908;2023-01-04T00:12:18;94077.53;;;2.46;75.09
45793;BME280;31495;42.740;22.908;2023-01-04T00:13:18;94054.69;;;2.35;75.05
45793;BME280;31495;42.740;22.908;2023-01-04T00:14:17;94085.06;;;2.48;74.43
45793;BME280;31495;42.740;22.908;2023-01-04T00:15:17;94009.44;;;1.88;73.90
45793;BME280;31495;42.740;22.908;2023-01-04T00:16:19;94084.38;;;2.36;74.13
45793;BME280;31495;42.740;22.908;2023-01-04T00:17:19;94085.22;;;2.36;74.16
45793;BME280;31495;42.740;22.908;2023-01-04T00:18:19;94078.22;;;2.38;74.54
45793;BME280;31495;42.740;22.908;2023-01-04T00:19:18;94075.78;;;2.47;75.12
45793;BME280;31495;42.740;22.908;2023-01-04T00:20:17;94080.09;;;2.56;76.34
45793;BME280;31495;42.740;22.908;2023-01-04T00:21:24;94056.16;;;2.37;76.42
45793;BME280;31495;42.740;22.908;2023-01-04T00:22:24;94085.84;;;2.58;76.27
45793;BME280;31495;42.740;22.908;2023-01-04T00:23:23;94089.59;;;2.54;76.19
45793;BME280;31495;42.740;22.908;2023-01-04T00:24:23;94079.53;;;2.52;76.35
45793;BME280;31495;42.740;22.908;2023-01-04T00:25:22;94071.88;;;2.43;76.40
45793;BME280;31495;42.740;22.908;2023-01-04T00:26:25;94083.44;;;2.56;76.50
45793;BME280;31495;42.740;22.908;2023-01-04T00:27:25;94065.19;;;2.42;76.31
45793;BME280;31495;42.740;22.908;2023-01-04T00:28:24;94088.69;;;2.55;75.84
45793;BME280;31495;42.740;22.908;2023-01-04T00:29:23;94081.00;;;2.55;75.43
45793;BME280;31495;42.740;22.908;2023-01-04T00:30:23;94063.69;;;2.39;75.35
45793;BME280;31495;42.740;22.908;2023-01-04T00:31:23;94080.88;;;2.47;75.34
45793;BME280;31495;42.740;22.908;2023-01-04T00:32:23;94076.72;;;2.46;75.63
45793;BME280;31495;42.740;22.908;2023-01-04T00:33:22;94084.38;;;2.46;75.70
45793;BME280;31495;42.740;22.908;2023-01-04T00:34:22;94022.22;;;2.08;75.94
45793;BME280;31495;42.740;22.908;2023-01-04T00:35:21;94056.16;;;2.28;75.97
45793;BME280;31495;42.740;22.908;2023-01-04T00:36:21;94042.22;;;2.12;76.12
45793;BME280;31495;42.740;22.908;2023-01-04T00:37:20;94020.06;;;2.03;76.19
45793;BME280;31495;42.740;22.908;2023-01-04T00:38:20;94045.03;;;2.09;76.00
45793;BME280;31495;42.740;22.908;2023-01-04T00:39:20;94030.28;;;1.93;76.17
45793;BME280;31495;42.740;22.908;2023-01-04T00:40:19;94067.34;;;2.17;76.54
45793;BME280;31495;42.740;22.908;2023-01-04T00:41:18;94072.31;;;2.18;76.60
45793;BME280;31495;42.740;22.908;2023-01-04T00:42:18;94086.03;;;2.27;76.96
45793;BME280;31495;42.740;22.908;2023-01-04T00:43:17;94055.78;;;2.13;76.97
45793;BME280;31495;42.740;22.908;2023-01-04T00:44:17;94024.75;;;1.98;76.72
45793;BME280;31495;42.740;22.908;2023-01-04T00:45:19;94084.50;;;2.44;76.37
45793;BME280;31495;42.740;22.908;2023-01-04T00:46:18;94079.38;;;2.54;76.18
45793;BME280;31495;42.740;22.908;2023-01-04T00:47:18;94043.28;;;2.29;76.14
45793;BME280;31495;42.740;22.908;2023-01-04T00:48:17;94048.94;;;2.33;75.58
45793;BME280;31495;42.740;22.908;2023-01-04T00:49:17;94072.44;;;2.46;75.64
45793;BME280;31495;42.740;22.908;2023-01-04T00:50:17;94046.22;;;2.34;75.61
45793;BME280;31495;42.740;22.908;2023-01-04T00:51:16;94076.56;;;2.57;75.60
45793;BME280;31495;42.740;22.908;2023-01-04T00:52:16;94092.69;;;2.67;75.60
45793;BME280;31495;42.740;22.908;2023-01-04T00:53:16;94083.97;;;2.60;75.80
45793;BME280;31495;42.740;22.908;2023-01-04T00:54:16;94089.72;;;2.72;75.92
45793;BME280;31495;42.740;22.908;2023-01-04T00:55:16;94087.53;;;2.77;75.82
45793;BME280;31495;42.740;22.908;2023-01-04T00:56:15;94056.66;;;2.51;75.83
45793;BME280;31495;42.740;22.908;2023-01-04T00:57:15;94062.59;;;2.61;75.66
45793;BME280;31495;42.740;22.908;2023-01-04T00:58:14;94052.66;;;2.48;75.06
45793;BME280;31495;42.740;22.908;2023-01-04T00:59:16;94082.31;;;2.69;75.01
45793;BME280;31495;42.740;22.908;2023-01-04T01:00:16;94052.78;;;2.56;74.73
45793;BME280;31495;42.740;22.908;2023-01-04T01:01:15;94069.84;;;2.66;74.82
45793;BME280;31495;42.740;22.908;2023-01-04T01:02:15;94028.34;;;2.34;74.76
45793;BME280;31495;42.740;22.908;2023-01-04T01:03:14;94093.34;;;2.79;74.79
45793;BME280;31495;42.740;22.908;2023-01-04T01:04:16;94092.50;;;2.79;75.16
45793;BME280;31495;42.740;22.908;2023-01-04T01:05:16;94096.03;;;2.78;75.07
45793;BME280;31495;42.740;22.908;2023-01-04T01:06:15;94097.50;;;2.80;75.13
45793;BME280;31495;42.740;22.908;2023-01-04T01:07:16;94071.69;;;2.73;75.26
45793;BME280;31495;42.740;22.908;2023-01-04T01:08:16;94080.19;;;2.74;75.22
45793;BME280;31495;42.740;22.908;2023-01-04T01:09:25;94077.91;;;2.71;75.49
45793;BME280;31495;42.740;22.908;2023-01-04T01:10:24;94082.88;;;2.72;75.53
45793;BME280;31495;42.740;22.908;2023-01-04T01:11:24;94060.31;;;2.58;75.71
45793;BME280;31495;42.740;22.908;2023-01-04T01:12:24;94069.44;;;2.61;75.86
45793;BME280;31495;42.740;22.908;2023-01-04T01:13:23;94089.28;;;2.76;76.02
45793;BME280;31495;42.740;22.908;2023-01-04T01:14:24;94060.72;;;2.53;76.05
45793;BME280;31495;42.740;22.908;2023-01-04T01:15:24;94078.47;;;2.55;76.35
45793;BME280;31495;42.740;22.908;2023-01-04T01:16:24;94067.47;;;2.45;76.36
45793;BME280;31495;42.740;22.908;2023-01-04T01:17:24;94076.97;;;2.52;76.22
45793;BME280;31495;42.740;22.908;2023-01-04T01:18:24;94064.38;;;2.41;76.75
45793;BME280;31495;42.740;22.908;2023-01-04T01:19:27;94096.47;;;2.63;76.98
45793;BME280;31495;42.740;22.908;2023-01-04T01:20:27;94099.81;;;2.54;77.47
45793;BME280;31495;42.740;22.908;2023-01-04T01:21:27;94096.72;;;2.60;77.29
45793;BME280;31495;42.740;22.908;2023-01-04T01:22:27;94095.41;;;2.66;76.73
45793;BME280;31495;42.740;22.908;2023-01-04T01:23:26;94076.41;;;2.68;76.02
45793;BME280;31495;42.740;22.908;2023-01-04T01:24:26;94093.78;;;2.65;76.43
45793;BME280;31495;42.740;22.908;2023-01-04T01:25:26;94090.94;;;2.68;76.68
45793;BME280;31495;42.740;22.908;2023-01-04T01:26:25;94089.19;;;2.68;76.54
45793;BME280;31495;42.740;22.908;2023-01-04T01:27:25;94084.09;;;2.58;76.52
45793;BME280;31495;42.740;22.908;2023-01-04T01:28:24;94095.94;;;2.60;76.53
45793;BME280;31495;42.740;22.908;2023-01-04T01:29:24;94092.19;;;2.44;76.22
45793;BME280;31495;42.740;22.908;2023-01-04T01:30:23;94093.00;;;2.45;76.58
45793;BME280;31495;42.740;22.908;2023-01-04T01:31:25;94067.06;;;2.30;76.79
45793;BME280;31495;42.740;22.908;2023-01-04T01:32:25;94073.66;;;2.32;77.19
45793;BME280;31495;42.740;22.908;2023-01-04T01:33:25;94093.16;;;2.33;77.38
45793;BME280;31495;42.740;22.908;2023-01-04T01:34:24;94082.81;;;2.15;78.20
45793;BME280;31495;42.740;22.908;2023-01-04T01:35:24;94060.38;;;1.99;78.91
45793;BME280;31495;42.740;22.908;2023-01-04T01:36:24;94095.84;;;2.12;79.47
45793;BME280;31495;42.740;22.908;2023-01-04T01:37:24;94088.03;;;2.04;79.43
45793;BME280;31495;42.740;22.908;2023-01-04T01:38:24;94062.53;;;1.94;79.95
45793;BME280;31495;42.740;22.908;2023-01-04T01:39:23;94094.78;;;2.15;79.96
45793;BME280;31495;42.740;22.908;2023-01-04T01:40:22;94067.34;;;1.97;79.53
45793;BME280;31495;42.740;22.908;2023-01-04T01:41:24;94033.25;;;1.79;79.51
45793;BME280;31495;42.740;22.908;2023-01-04T01:42:24;94084.00;;;2.11;79.73
45793;BME280;31495;42.740;22.908;2023-01-04T01:44:57;94073.78;;;2.21;79.31
45793;BME280;31495;42.740;22.908;2023-01-04T01:45:57;94083.72;;;2.24;78.67
45793;BME280;31495;42.740;22.908;2023-01-04T01:46:57;94085.50;;;2.24;78.60
45793;BME280;31495;42.740;22.908;2023-01-04T01:48:00;94085.34;;;2.25;78.81
45793;BME280;31495;42.740;22.908;2023-01-04T01:49:17;94083.34;;;2.19;79.05
45793;BME280;31495;42.740;22.908;2023-01-04T01:50:32;94082.81;;;2.15;78.83
45793;BME280;31495;42.740;22.908;2023-01-04T01:51:34;94083.59;;;2.26;78.07
45793;BME280;31495;42.740;22.908;2023-01-04T01:52:36;94030.41;;;1.82;78.62
45793;BME280;31495;42.740;22.908;2023-01-04T01:53:39;94078.63;;;2.14;79.34
45793;BME280;31495;42.740;22.908;2023-01-04T01:54:57;94036.06;;;1.76;79.39
45793;BME280;31495;42.740;22.908;2023-01-04T01:55:58;94077.44;;;2.09;78.99
45793;BME280;31495;42.740;22.908;2023-01-04T01:57:00;94082.66;;;2.17;79.19
45793;BME280;31495;42.740;22.908;2023-01-04T01:58:01;94085.09;;;2.18;79.12
45793;BME280;31495;42.740;22.908;2023-01-04T01:59:02;94085.22;;;2.17;79.23
45793;BME280;31495;42.740;22.908;2023-01-04T02:00:13;94047.72;;;1.98;78.98
45793;BME280;31495;42.740;22.908;2023-01-04T02:01:14;94068.28;;;2.16;79.05
45793;BME280;31495;42.740;22.908;2023-01-04T02:02:14;94083.34;;;2.19;79.25
45793;BME280;31495;42.740;22.908;2023-01-04T02:03:17;94003.69;;;1.76;79.11
45793;BME280;31495;42.740;22.908;2023-01-04T02:04:17;94074.88;;;2.18;78.74
45793;BME280;31495;42.740;22.908;2023-01-04T02:05:18;94074.63;;;2.22;78.14
45793;BME280;31495;42.740;22.908;2023-01-04T02:06:30;94068.81;;;2.10;77.71
45793;BME280;31495;42.740;22.908;2023-01-04T02:07:31;94078.63;;;2.14;77.86
45793;BME280;31495;42.740;22.908;2023-01-04T02:08:31;94065.72;;;2.06;77.70
45793;BME280;31495;42.740;22.908;2023-01-04T02:09:32;94088.19;;;2.22;77.30
45793;BME280;31495;42.740;22.908;2023-01-04T02:10:31;94059.16;;;2.13;76.88
45793;BME280;31495;42.740;22.908;2023-01-04T02:11:31;94087.13;;;2.15;77.09
45793;BME280;31495;42.740;22.908;2023-01-04T02:12:31;94092.50;;;2.02;77.72
45793;BME280;31495;42.740;22.908;2023-01-04T02:13:33;94072.59;;;1.86;77.63
45793;BME280;31495;42.740;22.908;2023-01-04T02:14:52;94087.50;;;1.91;77.94
45793;BME280;31495;42.740;22.908;2023-01-04T02:16:20;94091.25;;;1.96;77.90
45793;BME280;31495;42.740;22.908;2023-01-04T02:17:38;94073.00;;;1.91;77.46
45793;BME280;31495;42.740;22.908;2023-01-04T02:18:55;94083.88;;;1.93;77.60
45793;BME280;31495;42.740;22.908;2023-01-04T02:21:30;94088.56;;;2.08;78.29
45793;BME280;31495;42.740;22.908;2023-01-04T02:22:48;94086.41;;;2.13;78.38
45793;BME280;31495;42.740;22.908;2023-01-04T02:26:59;94084.81;;;2.02;77.58
45793;BME280;31495;42.740;22.908;2023-01-04T02:30:30;94075.53;;;2.01;77.27
45793;BME280;31495;42.740;22.908;2023-01-04T02:32:42;94061.59;;;1.86;77.54
45793;BME280;31495;42.740;22.908;2023-01-04T02:33:52;94066.81;;;1.84;76.83
45793;BME280;31495;42.740;22.908;2023-01-04T02:40:30;94081.19;;;1.85;77.07
45793;BME280;31495;42.740;22.908;2023-01-04T02:41:39;94073.50;;;1.75;77.45
45793;BME280;31495;42.740;22.908;2023-01-04T02:42:47;94071.78;;;1.86;77.48
45793;BME280;31495;42.740;22.908;2023-01-04T02:44:17;94065.06;;;1.75;77.80
45793;BME280;31495;42.740;22.908;2023-01-04T02:45:58;94075.69;;;1.90;78.22
45793;BME280;31495;42.740;22.908;2023-01-04T02:47:09;94074.22;;;1.97;77.81
45793;BME280;31495;42.740;22.908;2023-01-04T02:48:10;94029.06;;;1.68;77.77
45793;BME280;31495;42.740;22.908;2023-01-04T02:49:29;94072.47;;;1.97;77.89
45793;BME280;31495;42.740;22.908;2023-01-04T02:50:52;94066.97;;;1.92;77.61
45793;BME280;31495;42.740;22.908;2023-01-04T02:51:52;94070.03;;;1.86;77.64
45793;BME280;31495;42.740;22.908;2023-01-04T02:52:51;94058.31;;;1.64;76.83
45793;BME280;31495;42.740;22.908;2023-01-04T02:53:51;94041.16;;;1.56;76.63
45793;BME280;31495;42.740;22.908;2023-01-04T02:54:54;94047.31;;;1.63;77.23
45793;BME280;31495;42.740;22.908;2023-01-04T02:57:38;94073.09;;;1.70;75.92
45793;BME280;31495;42.740;22.908;2023-01-04T02:59:27;94071.91;;;1.64;76.27
45793;BME280;31495;42.740;22.908;2023-01-04T03:00:38;94072.19;;;1.71;76.23
45793;BME280;31495;42.740;22.908;2023-01-04T03:03:54;94038.38;;;1.19;77.98
45793;BME280;31495;42.740;22.908;2023-01-04T03:05:37;94074.38;;;1.35;78.30
45793;BME280;31495;42.740;22.908;2023-01-04T03:07:12;94069.41;;;1.34;78.45
45793;BME280;31495;42.740;22.908;2023-01-04T03:08:37;94069.16;;;1.37;78.64
45793;BME280;31495;42.740;22.908;2023-01-04T03:09:41;94057.47;;;1.34;78.29
45793;BME280;31495;42.740;22.908;2023-01-04T03:11:55;94059.75;;;1.37;78.41
45793;BME280;31495;42.740;22.908;2023-01-04T03:13:33;94055.16;;;1.31;78.35
45793;BME280;31495;42.740;22.908;2023-01-04T03:14:47;94074.00;;;1.40;78.00
45793;BME280;31495;42.740;22.908;2023-01-04T03:15:52;94074.41;;;1.45;77.01
45793;BME280;31495;42.740;22.908;2023-01-04T03:16:54;94049.66;;;1.26;77.16
45793;BME280;31495;42.740;22.908;2023-01-04T03:17:54;94069.97;;;1.37;77.84
45793;BME280;31495;42.740;22.908;2023-01-04T03:18:57;94079.88;;;1.31;77.63
45793;BME280;31495;42.740;22.908;2023-01-04T03:20:03;94069.38;;;1.24;77.34
45793;BME280;31495;42.740;22.908;2023-01-04T03:21:03;94081.22;;;1.25;77.30
45793;BME280;31495;42.740;22.908;2023-01-04T03:22:06;94052.59;;;1.12;77.28
45793;BME280;31495;42.740;22.908;2023-01-04T03:23:28;94060.22;;;1.02;77.79
45793;BME280;31495;42.740;22.908;2023-01-04T03:24:47;94076.50;;;1.20;77.99
45793;BME280;31495;42.740;22.908;2023-01-04T03:27:24;94071.31;;;1.32;78.04
45793;BME280;31495;42.740;22.908;2023-01-04T03:28:43;94067.91;;;1.31;77.79
45793;BME280;31495;42.740;22.908;2023-01-04T03:30:07;94049.59;;;1.06;77.49
45793;BME280;31495;42.740;22.908;2023-01-04T03:31:51;94079.97;;;1.19;77.55
45793;BME280;31495;42.740;22.908;2023-01-04T03:33:15;94050.00;;;1.02;77.53
45793;BME280;31495;42.740;22.908;2023-01-04T03:34:34;94069.56;;;1.01;76.85
45793;BME280;31495;42.740;22.908;2023-01-04T03:36:05;94085.56;;;1.13;77.35
45793;BME280;31495;42.740;22.908;2023-01-04T03:38:41;94080.63;;;1.12;77.05
45793;BME280;31495;42.740;22.908;2023-01-04T03:40:25;94045.19;;;0.99;77.00
45793;BME280;31495;42.740;22.908;2023-01-04T03:42:21;94060.88;;;1.04;77.46
45793;BME280;31495;42.740;22.908;2023-01-04T03:43:52;94079.44;;;1.16;77.02
45793;BME280;31495;42.740;22.908;2023-01-04T03:45:29;94082.13;;;1.24;76.76
45793;BME280;31495;42.740;22.908;2023-01-04T03:46:52;94066.81;;;1.14;76.30
45793;BME280;31495;42.740;22.908;2023-01-04T03:48:21;94044.59;;;0.95;76.64
45793;BME280;31495;42.740;22.908;2023-01-04T03:49:44;94081.75;;;1.28;77.19
45793;BME280;31495;42.740;22.908;2023-01-04T03:51:59;94051.47;;;1.04;76.59
45793;BME280;31495;42.740;22.908;2023-01-04T03:53:01;94056.75;;;1.13;75.96
45793;BME280;31495;42.740;22.908;2023-01-04T03:54:10;94083.66;;;1.36;75.75
45793;BME280;31495;42.740;22.908;2023-01-04T03:55:14;94085.50;;;1.34;75.59
45793;BME280;31495;42.740;22.908;2023-01-04T03:56:15;94088.88;;;1.35;75.00
45793;BME280;31495;42.740;22.908;2023-01-04T03:57:17;94065.63;;;1.18;74.64
45793;BME280;31495;42.740;22.908;2023-01-04T03:58:18;94089.56;;;1.37;74.65
45793;BME280;31495;42.740;22.908;2023-01-04T03:59:18;94088.88;;;1.35;74.86
45793;BME280;31495;42.740;22.908;2023-01-04T04:00:20;94084.34;;;1.38;74.88
45793;BME280;31495;42.740;22.908;2023-01-04T04:01:22;94075.97;;;1.17;75.17
45793;BME280;31495;42.740;22.908;2023-01-04T04:02:27;94089.78;;;1.24;75.75
45793;BME280;31495;42.740;22.908;2023-01-04T04:03:27;94084.53;;;1.16;75.93
45793;BME280;31495;42.740;22.908;2023-01-04T04:04:26;94092.47;;;1.22;75.80
45793;BME280;31495;42.740;22.908;2023-01-04T04:05:45;94083.88;;;1.23;75.68
45793;BME280;31495;42.740;22.908;2023-01-04T04:07:04;94081.59;;;1.20;75.51
45793;BME280;31495;42.740;22.908;2023-01-04T04:08:22;94092.97;;;1.16;75.47
45793;BME280;31495;42.740;22.908;2023-01-04T04:09:28;94087.88;;;1.16;75.44
45793;BME280;31495;42.740;22.908;2023-01-04T04:10:27;94085.31;;;1.16;75.57
45793;BME280;31495;42.740;22.908;2023-01-04T04:11:27;94052.81;;;0.99;75.34
45793;BME280;31495;42.740;22.908;2023-01-04T04:12:29;94080.22;;;1.16;75.12
45793;BME280;31495;42.740;22.908;2023-01-04T04:13:29;94081.22;;;1.25;75.32
45793;BME280;31495;42.740;22.908;2023-01-04T04:14:28;94038.88;;;1.03;75.14
45793;BME280;31495;42.740;22.908;2023-01-04T04:15:28;94051.66;;;1.13;74.05
45793;BME280;31495;42.740;22.908;2023-01-04T04:16:28;94086.19;;;1.26;74.01
45793;BME280;31495;42.740;22.908;2023-01-04T04:17:27;94061.44;;;1.07;74.37
45793;BME280;31495;42.740;22.908;2023-01-04T04:18:26;94092.06;;;1.27;74.67
45793;BME280;31495;42.740;22.908;2023-01-04T04:19:26;94069.75;;;1.09;74.79
45793;BME280;31495;42.740;22.908;2023-01-04T04:20:25;94091.28;;;1.26;74.74
45793;BME280;31495;42.740;22.908;2023-01-04T04:21:25;94094.63;;;1.27;74.17
45793;BME280;31495;42.740;22.908;2023-01-04T04:22:24;94090.53;;;1.15;74.65
45793;BME280;31495;42.740;22.908;2023-01-04T04:23:24;94035.16;;;0.76;75.65
45793;BME280;31495;42.740;22.908;2023-01-04T04:24:25;94088.66;;;1.07;75.68
45793;BME280;31495;42.740;22.908;2023-01-04T04:25:25;94065.56;;;0.99;75.30
45793;BME280;31495;42.740;22.908;2023-01-04T04:26:24;94097.94;;;1.18;75.15
45793;BME280;31495;42.740;22.908;2023-01-04T04:27:23;94095.94;;;1.21;74.66
45793;BME280;31495;42.740;22.908;2023-01-04T04:28:23;94103.75;;;1.29;74.63
45793;BME280;31495;42.740;22.908;2023-01-04T04:29:23;94072.56;;;1.16;74.65
45793;BME280;31495;42.740;22.908;2023-01-04T04:30:23;94101.19;;;1.29;74.93
45793;BME280;31495;42.740;22.908;2023-01-04T04:31:22;94053.38;;;1.02;75.14
45793;BME280;31495;42.740;22.908;2023-01-04T04:32:22;94096.28;;;1.38;75.07
45793;BME280;31495;42.740;22.908;2023-01-04T04:33:22;94071.00;;;1.25;74.81
45793;BME280;31495;42.740;22.908;2023-01-04T04:34:21;94101.94;;;1.41;75.30
45793;BME280;31495;42.740;22.908;2023-01-04T04:35:20;94072.56;;;1.16;75.65
45793;BME280;31495;42.740;22.908;2023-01-04T04:36:20;94090.63;;;1.34;75.50
45793;BME280;31495;42.740;22.908;2023-01-04T04:37:19;94081.63;;;1.30;75.21
45793;BME280;31495;42.740;22.908;2023-01-04T04:38:19;94107.56;;;1.45;75.09
45793;BME280;31495;42.740;22.908;2023-01-04T04:39:19;94097.25;;;1.46;75.01
45793;BME280;31495;42.740;22.908;2023-01-04T04:40:18;94101.53;;;1.46;75.77
45793;BME280;31495;42.740;22.908;2023-01-04T04:41:38;94073.81;;;1.22;75.09
45793;BME280;31495;42.740;22.908;2023-01-04T04:42:37;94093.44;;;1.41;75.22
45793;BME280;31495;42.740;22.908;2023-01-04T04:43:37;94101.00;;;1.52;75.28
45793;BME280;31495;42.740;22.908;2023-01-04T04:44:36;94045.38;;;1.26;75.42
45793;BME280;31495;42.740;22.908;2023-01-04T04:45:35;94066.75;;;1.45;76.24
45793;BME280;31495;42.740;22.908;2023-01-04T04:46:35;94027.41;;;1.28;76.52
45793;BME280;31495;42.740;22.908;2023-01-04T04:47:34;94093.25;;;1.73;76.96
45793;BME280;31495;42.740;22.908;2023-01-04T04:48:34;94078.91;;;1.72;76.59
45793;BME280;31495;42.740;22.908;2023-01-04T04:49:33;94108.03;;;1.79;75.79
45793;BME280;31495;42.740;22.908;2023-01-04T04:50:33;94102.28;;;1.87;76.06
45793;BME280;31495;42.740;22.908;2023-01-04T04:51:33;94090.84;;;1.81;76.05
45793;BME280;31495;42.740;22.908;2023-01-04T04:52:32;94091.50;;;1.74;76.11
45793;BME280;31495;42.740;22.908;2023-01-04T04:53:32;94098.50;;;1.81;76.03
45793;BME280;31495;42.740;22.908;2023-01-04T04:54:31;94078.91;;;1.72;76.02
45793;BME280;31495;42.740;22.908;2023-01-04T04:55:31;94072.84;;;1.73;75.74
45793;BME280;31495;42.740;22.908;2023-01-04T04:56:30;94110.75;;;2.07;75.56
45793;BME280;31495;42.740;22.908;2023-01-04T04:57:30;94088.31;;;1.91;75.48
45793;BME280;31495;42.740;22.908;2023-01-04T04:58:30;94105.25;;;2.02;75.77
45793;BME280;31495;42.740;22.908;2023-01-04T04:59:29;94109.00;;;2.08;75.91
45793;BME280;31495;42.740;22.908;2023-01-04T05:00:29;94100.94;;;2.12;75.71
45793;BME280;31495;42.740;22.908;2023-01-04T05:01:29;94100.41;;;2.18;75.44
45793;BME280;31495;42.740;22.908;2023-01-04T05:02:28;94094.91;;;2.23;75.06
45793;BME280;31495;42.740;22.908;2023-01-04T05:03:28;94073.53;;;1.95;75.25
45793;BME280;31495;42.740;22.908;2023-01-04T05:04:28;94104.44;;;2.21;75.22
45793;BME280;31495;42.740;22.908;2023-01-04T05:05:27;94096.75;;;2.31;75.47
45793;BME280;31495;42.740;22.908;2023-01-04T05:06:27;94100.69;;;2.35;75.51
45793;BME280;31495;42.740;22.908;2023-01-04T05:07:27;94110.09;;;2.15;76.08
45793;BME280;31495;42.740;22.908;2023-01-04T05:08:26;94108.59;;;2.22;76.13
45793;BME280;31495;42.740;22.908;2023-01-04T05:09:25;94059.56;;;1.99;75.84
45793;BME280;31495;42.740;22.908;2023-01-04T05:10:25;94108.88;;;2.29;75.85
45793;BME280;31495;42.740;22.908;2023-01-04T05:11:24;94104.44;;;2.31;76.38
45793;BME280;31495;42.740;22.908;2023-01-04T05:12:43;94109.13;;;2.35;76.52
45793;BME280;31495;42.740;22.908;2023-01-04T05:13:57;94075.81;;;2.27;76.45
45793;BME280;31495;42.740;22.908;2023-01-04T05:14:57;94106.72;;;2.44;76.42
45793;BME280;31495;42.740;22.908;2023-01-04T05:15:56;94085.63;;;2.32;76.56
45793;BME280;31495;42.740;22.908;2023-01-04T05:16:55;94083.88;;;2.32;76.47
45793;BME280;31495;42.740;22.908;2023-01-04T05:17:55;94114.22;;;2.55;76.06
45793;BME280;31495;42.740;22.908;2023-01-04T05:18:54;94114.75;;;2.49;75.99
45793;BME280;31495;42.740;22.908;2023-01-04T05:19:54;94094.06;;;2.32;76.13
45793;BME280;31495;42.740;22.908;2023-01-04T05:20:53;94097.00;;;2.47;76.14
45793;BME280;31495;42.740;22.908;2023-01-04T05:21:53;94112.72;;;2.62;75.95
45793;BME280;31495;42.740;22.908;2023-01-04T05:22:52;94115.41;;;2.70;75.83
45793;BME280;31495;42.740;22.908;2023-01-04T05:23:51;94115.97;;;2.74;75.99
45793;BME280;31495;42.740;22.908;2023-01-04T05:24:51;94111.63;;;2.74;76.11
45793;BME280;31495;42.740;22.908;2023-01-04T05:25:52;94114.19;;;2.74;76.46
45793;BME280;31495;42.740;22.908;2023-01-04T05:26:52;94118.38;;;2.75;76.86
45793;BME280;31495;42.740;22.908;2023-01-04T05:27:52;94119.28;;;2.84;77.10
45793;BME280;31495;42.740;22.908;2023-01-04T05:28:51;94101.16;;;2.78;77.63
45793;BME280;31495;42.740;22.908;2023-01-04T05:29:51;94107.84;;;2.79;77.41
45793;BME280;31495;42.740;22.908;2023-01-04T05:31:09;94101.94;;;2.78;77.25
45793;BME280;31495;42.740;22.908;2023-01-04T05:32:09;94075.06;;;2.74;77.35
45793;BME280;31495;42.740;22.908;2023-01-04T05:33:08;94096.16;;;2.76;77.41
45793;BME280;31495;42.740;22.908;2023-01-04T05:34:08;94112.00;;;2.89;77.63
45793;BME280;31495;42.740;22.908;2023-01-04T05:35:07;94076.53;;;2.67;77.43
45793;BME280;31495;42.740;22.908;2023-01-04T05:36:07;94115.88;;;2.93;77.56
45793;BME280;31495;42.740;22.908;2023-01-04T05:37:06;94104.59;;;2.86;77.92
45793;BME280;31495;42.740;22.908;2023-01-04T05:38:06;94110.53;;;2.87;78.06
45793;BME280;31495;42.740;22.908;2023-01-04T05:39:05;94114.53;;;2.99;77.83
45793;BME280;31495;42.740;22.908;2023-01-04T05:40:05;94101.25;;;2.86;77.67
45793;BME280;31495;42.740;22.908;2023-01-04T05:41:04;94082.16;;;2.80;77.50
45793;BME280;31495;42.740;22.908;2023-01-04T05:42:24;94114.25;;;3.02;77.13
45793;BME280;31495;42.740;22.908;2023-01-04T05:43:24;94118.41;;;3.03;77.53
45793;BME280;31495;42.740;22.908;2023-01-04T05:44:23;94122.59;;;3.04;77.61
45793;BME280;31495;42.740;22.908;2023-01-04T05:45:22;94115.84;;;3.03;77.54
45793;BME280;31495;42.740;22.908;2023-01-04T05:46:22;94114.03;;;2.86;78.06
45793;BME280;31495;42.740;22.908;2023-01-04T05:47:22;94067.56;;;2.63;78.17
45793;BME280;31495;42.740;22.908;2023-01-04T05:48:23;94121.53;;;2.97;78.24
45793;BME280;31495;42.740;22.908;2023-01-04T05:49:23;94110.50;;;2.97;78.05
45793;BME280;31495;42.740;22.908;2023-01-04T05:50:22;94099.75;;;2.93;78.34
45793;BME280;31495;42.740;22.908;2023-01-04T05:51:22;94086.59;;;2.88;78.18
45793;BME280;31495;42.740;22.908;2023-01-04T05:52:21;94115.72;;;3.05;78.06
45793;BME280;31495;42.740;22.908;2023-01-04T05:53:20;94121.66;;;3.05;77.98
45793;BME280;31495;42.740;22.908;2023-01-04T05:54:20;94107.81;;;2.98;77.91
45793;BME280;31495;42.740;22.908;2023-01-04T05:55:19;94105.09;;;3.00;78.09
45793;BME280;31495;42.740;22.908;2023-01-04T05:56:19;94114.50;;;3.09;77.77
45793;BME280;31495;42.740;22.908;2023-01-04T05:57:18;94115.84;;;3.03;77.58
45793;BME280;31495;42.740;22.908;2023-01-04T05:58:18;94075.59;;;2.78;77.71
45793;BME280;31495;42.740;22.908;2023-01-04T05:59:17;94085.78;;;2.87;77.87
45793;BME280;31495;42.740;22.908;2023-01-04T06:00:17;94121.38;;;3.08;77.84
45793;BME280;31495;42.740;22.908;2023-01-04T06:01:16;94122.97;;;3.09;77.78
45793;BME280;31495;42.740;22.908;2023-01-04T06:02:21;94107.78;;;3.08;77.64